Time;durP1;ratioP1;P1;durP2;ratioP2;P2;SDS_P1;SDS_P2;PMS_P1;PMS_P2;Temp;Humidity;BMP_temperature;BMP_pressure;BME280_temperature;BME280_humidity;BME280_pressure;Samples;Min_cycle;Max_cycle;Signal;HPM_P1;HPM_P2
2021/05/18 00:00:08;;;;;;;5.05;3.08;;;;;;;11.98;80.15;100615.50;5035841;28;20037;-73
2021/05/18 00:02:34;;;;;;;3.38;2.70;;;;;;;12.00;80.17;100613.38;5041590;28;20057;-73
2021/05/18 00:04:59;;;;;;;3.55;2.70;;;;;;;11.86;81.54;100612.25;5032892;28;20060;-73
2021/05/18 00:07:25;;;;;;;3.28;2.75;;;;;;;11.86;80.90;100614.91;5052891;28;20037;-73
2021/05/18 00:12:37;;;;;;;4.83;3.27;;;;;;;11.71;82.47;100624.47;5036139;28;20496;-73
2021/05/18 00:15:08;;;;;;;3.10;2.80;;;;;;;11.73;82.75;100627.69;5050348;28;20053;-73
2021/05/18 00:17:33;;;;;;;4.32;3.80;;;;;;;11.84;81.68;100631.25;5040234;28;20547;-73
2021/05/18 00:19:59;;;;;;;4.55;4.00;;;;;;;11.90;81.33;100626.75;5039616;28;20029;-73
2021/05/18 00:22:24;;;;;;;4.15;3.30;;;;;;;11.94;81.07;100631.34;5033981;28;20040;-73
2021/05/18 00:24:50;;;;;;;4.25;3.00;;;;;;;11.89;81.38;100625.94;5037762;28;20040;-73
2021/05/18 00:27:19;;;;;;;5.22;3.20;;;;;;;11.94;80.79;100638.56;5041543;28;20053;-73
2021/05/18 00:29:45;;;;;;;4.22;2.88;;;;;;;11.88;81.26;100631.56;5040369;28;20493;-73
2021/05/18 00:32:10;;;;;;;4.35;2.90;;;;;;;11.62;83.87;100642.09;5034449;28;20032;-73
2021/05/18 00:34:36;;;;;;;4.18;3.25;;;;;;;11.33;85.86;100638.13;5039401;28;20391;-73
2021/05/18 00:37:01;;;;;;;3.60;3.30;;;;;;;11.48;83.60;100644.41;5033460;28;20141;-73
2021/05/18 00:39:27;;;;;;;6.25;4.80;;;;;;;11.56;83.32;100637.75;5031764;28;20025;-72
2021/05/18 00:41:53;;;;;;;5.80;4.78;;;;;;;11.56;84.13;100645.00;5035422;28;20037;-73
2021/05/18 00:44:18;;;;;;;4.80;3.90;;;;;;;11.47;84.74;100639.28;5034012;28;20603;-73
2021/05/18 00:46:44;;;;;;;3.55;3.25;;;;;;;11.41;84.97;100645.69;5037312;28;20915;-73
2021/05/18 00:49:09;;;;;;;4.63;4.20;;;;;;;11.49;84.19;100645.22;5035488;28;20475;-73
2021/05/18 00:51:39;;;;;;;5.85;4.35;;;;;;;11.56;83.62;100639.63;5032916;28;20016;-73
2021/05/18 00:54:08;;;;;;;5.05;4.05;;;;;;;11.62;83.11;100643.97;5035668;28;20056;-73
2021/05/18 00:59:01;;;;;;;6.25;4.20;;;;;;;11.66;82.70;100645.88;5031817;28;20474;-73
2021/05/18 01:01:27;;;;;;;4.35;3.83;;;;;;;11.67;82.44;100647.50;5034468;28;20395;-73
2021/05/18 01:03:54;;;;;;;5.22;4.72;;;;;;;11.67;82.79;100638.63;5031926;28;20115;-73
2021/05/18 01:08:56;;;;;;;5.32;4.15;;;;;;;11.59;82.76;100645.28;5035894;28;20033;-73
2021/05/18 01:11:25;;;;;;;5.63;4.93;;;;;;;11.53;83.01;100640.97;5033328;28;20144;-73
2021/05/18 01:14:03;;;;;;;6.97;5.47;;;;;;;11.45;83.38;100631.50;5034435;28;20418;-73
2021/05/18 01:16:32;;;;;;;9.18;5.22;;;;;;;11.33;83.98;100646.16;5051884;28;20399;-73
2021/05/18 01:18:58;;;;;;;7.18;5.68;;;;;;;11.24;84.54;100647.69;5036811;28;20033;-73
2021/05/18 01:21:24;;;;;;;7.22;5.70;;;;;;;11.14;84.87;100653.78;5050500;28;20384;-72
2021/05/18 01:23:50;;;;;;;9.15;6.40;;;;;;;11.12;84.52;100662.03;5033500;28;20025;-73
2021/05/18 01:26:17;;;;;;;10.68;5.68;;;;;;;11.04;84.93;100659.84;5033707;28;20021;-73
2021/05/18 01:28:43;;;;;;;8.32;5.50;;;;;;;10.98;85.11;100660.84;5034694;28;20104;-73
2021/05/18 01:31:11;;;;;;;8.20;6.38;;;;;;;10.87;85.80;100659.13;5035156;28;20035;-73
2021/05/18 01:33:37;;;;;;;7.93;5.03;;;;;;;10.70;86.34;100666.44;5033436;28;20025;-72
2021/05/18 01:36:07;;;;;;;8.48;5.82;;;;;;;10.68;85.15;100665.88;5036105;28;20032;-73
2021/05/18 01:38:47;;;;;;;7.55;5.82;;;;;;;10.57;85.25;100665.75;5041497;28;20029;-72
2021/05/18 01:43:59;;;;;;;6.15;5.50;;;;;;;10.41;85.96;100663.97;5032051;28;20051;-73
2021/05/18 01:46:26;;;;;;;7.05;5.50;;;;;;;10.35;86.17;100664.13;5032888;28;20029;-73
2021/05/18 01:49:07;;;;;;;10.13;6.65;;;;;;;10.11;87.27;100669.69;5036619;28;20116;-72
2021/05/18 01:51:35;;;;;;;10.98;6.90;;;;;;;10.08;87.09;100664.81;5033813;28;20074;-73
2021/05/18 01:54:14;;;;;;;11.20;6.95;;;;;;;9.99;87.29;100682.34;5036273;28;20028;-73
2021/05/18 01:59:09;;;;;;;7.60;6.32;;;;;;;9.94;86.88;100677.72;5036792;28;20030;-73
2021/05/18 02:01:35;;;;;;;10.75;6.75;;;;;;;9.84;87.53;100682.13;5032987;28;20021;-72
2021/05/18 02:04:03;;;;;;;7.95;6.05;;;;;;;9.77;87.89;100684.16;5030414;28;20031;-72
2021/05/18 02:06:29;;;;;;;11.57;6.95;;;;;;;9.74;87.44;100677.44;5035284;28;20044;-72
2021/05/18 02:08:57;;;;;;;9.88;6.68;;;;;;;9.74;87.09;100690.81;5032555;28;20025;-72
2021/05/18 02:11:22;;;;;;;16.08;7.53;;;;;;;9.69;87.11;100682.69;5035355;28;20022;-72
2021/05/18 02:13:50;;;;;;;9.45;5.85;;;;;;;9.71;86.16;100687.81;5039882;28;20021;-72
2021/05/18 02:16:29;;;;;;;11.38;6.43;;;;;;;9.66;87.69;100702.72;5033823;28;20163;-72
2021/05/18 02:21:33;;;;;;;28.65;6.30;;;;;;;9.59;88.74;100709.28;5034169;28;20036;-72
2021/05/18 02:26:42;;;;;;;6.85;5.13;;;;;;;9.54;88.79;100710.00;5035667;28;20059;-72
2021/05/18 02:29:08;;;;;;;11.00;4.70;;;;;;;9.60;87.80;100713.56;5035177;28;21989;-73
2021/05/18 02:31:33;;;;;;;7.10;4.40;;;;;;;9.61;88.20;100716.00;5036090;28;20032;-73
2021/05/18 02:33:59;;;;;;;7.78;5.60;;;;;;;9.69;87.48;100715.63;5035860;28;20025;-73
2021/05/18 02:36:27;;;;;;;11.02;6.72;;;;;;;9.70;87.38;100716.44;5034498;28;20050;-72
2021/05/18 02:38:53;;;;;;;14.57;7.70;;;;;;;9.67;87.58;100719.56;5031273;28;21910;-73
2021/05/18 02:41:19;;;;;;;11.68;7.45;;;;;;;9.68;86.82;100713.97;5039666;28;20029;-72
2021/05/18 02:43:52;;;;;;;9.68;6.70;;;;;;;9.69;86.08;100729.00;5042526;28;20029;-72
2021/05/18 02:51:27;;;;;;;8.90;6.78;;;;;;;9.54;86.46;100726.06;5035129;28;20109;-72
2021/05/18 02:53:53;;;;;;;8.88;6.22;;;;;;;9.46;86.85;100729.13;5041311;28;20124;-73
2021/05/18 02:58:55;;;;;;;6.88;5.70;;;;;;;9.41;86.84;100728.22;5038325;28;20033;-72
2021/05/18 03:01:21;;;;;;;23.63;9.98;;;;;;;9.36;87.04;100735.09;5036740;28;20118;-72
2021/05/18 03:03:46;;;;;;;13.60;7.55;;;;;;;9.44;85.83;100730.41;5036113;28;20613;-72
2021/05/18 03:06:12;;;;;;;19.40;9.10;;;;;;;9.50;84.94;100734.78;5037940;28;20028;-72
2021/05/18 03:08:39;;;;;;;76.40;12.43;;;;;;;9.37;85.10;100728.72;5034965;28;20057;-72
2021/05/18 03:11:11;;;;;;;54.00;9.85;;;;;;;9.29;85.42;100731.75;5038311;28;20033;-73
2021/05/18 03:13:36;;;;;;;26.17;7.63;;;;;;;9.19;85.83;100733.44;5037817;28;20083;-72
2021/05/18 03:16:02;;;;;;;38.28;9.15;;;;;;;9.16;85.58;100739.28;5052387;28;20025;-72
2021/05/18 03:18:28;;;;;;;24.25;10.00;;;;;;;9.00;87.63;100741.66;5043053;28;20548;-72
2021/05/18 03:20:53;;;;;;;15.52;8.02;;;;;;;8.99;87.46;100737.34;5038861;28;20071;-72
2021/05/18 03:23:19;;;;;;;13.20;7.85;;;;;;;8.86;88.95;100744.81;5038294;28;20502;-72
2021/05/18 03:25:45;;;;;;;12.75;7.00;;;;;;;8.85;89.51;100741.34;5036328;28;20115;-72
2021/05/18 03:28:10;;;;;;;13.02;7.80;;;;;;;8.84;90.35;100747.75;5036232;28;20453;-72
2021/05/18 03:36:05;;;;;;;9.67;6.63;;;;;;;9.04;88.10;100752.66;5036556;28;20529;-72
2021/05/18 03:38:55;;;;;;;6.70;4.95;;;;;;;9.12;87.41;100752.28;5042455;28;20029;-72
2021/05/18 03:41:27;;;;;;;10.98;7.45;;;;;;;9.09;87.47;100750.09;5035900;28;20155;-72
2021/05/18 04:02:41;;;;;;;4.30;3.90;;;;;;;8.91;85.01;100768.97;5039275;28;20040;-73
2021/05/18 04:04:59;;;;;;;6.95;4.70;;;;;;;8.75;89.70;100775.84;5035603;28;19923;-72
2021/05/18 04:10:31;;;;;;;8.95;5.50;;;;;;;9.01;85.97;100774.53;5033417;28;20126;-72
2021/05/18 04:18:25;;;;;;;7.72;5.50;;;;;;;9.09;86.59;100776.81;5038688;28;20183;-72
2021/05/18 04:23:45;;;;;;;5.88;5.03;;;;;;;9.25;85.87;100776.06;5037438;28;20067;-72
2021/05/18 05:01:00;;;;;;;7.20;5.82;;;;;;;10.05;86.34;100798.31;5035552;28;20518;-72
2021/05/18 05:16:20;;;;;;;8.20;5.32;;;;;;;10.68;84.55;100802.53;5034132;28;20056;-72
2021/05/18 05:18:46;;;;;;;6.13;5.15;;;;;;;10.41;87.76;100811.28;5036201;28;20634;-72
2021/05/18 05:21:12;;;;;;;7.45;6.35;;;;;;;10.61;86.73;100813.44;5032941;28;20067;-72
2021/05/18 05:23:38;;;;;;;7.07;5.57;;;;;;;10.77;86.80;100817.94;5030100;28;20025;-72
2021/05/18 05:26:04;;;;;;;6.75;4.97;;;;;;;11.03;84.79;100829.81;5032410;28;20428;-72
2021/05/18 05:28:29;;;;;;;9.02;5.55;;;;;;;11.24;85.23;100833.53;5037489;28;20044;-72
2021/05/18 05:30:55;;;;;;;6.13;5.53;;;;;;;11.58;82.93;100820.78;5040114;23;20082;-85
2021/05/18 05:33:21;;;;;;;5.55;4.80;;;;;;;11.78;82.30;100830.91;5062655;28;20044;-85
2021/05/18 05:35:47;;;;;;;7.90;5.43;;;;;;;11.98;80.71;100827.63;5059879;28;20025;-85
2021/05/18 05:38:15;;;;;;;5.47;4.68;;;;;;;12.21;79.69;100838.06;5068175;28;20031;-86
2021/05/18 05:40:41;;;;;;;5.80;4.45;;;;;;;12.40;79.21;100833.91;5063027;28;20044;-85
2021/05/18 05:43:06;;;;;;;4.90;4.40;;;;;;;12.64;78.62;100826.25;5059484;28;20060;-85
2021/05/18 05:45:32;;;;;;;4.40;3.33;;;;;;;12.78;77.69;100832.00;5062476;28;20055;-85
2021/05/18 05:47:57;;;;;;;6.18;4.25;;;;;;;12.91;77.53;100836.88;5062235;28;20505;-85
2021/05/18 05:50:23;;;;;;;5.13;4.00;;;;;;;13.08;77.01;100846.66;5062056;28;20447;-85
2021/05/18 05:52:49;;;;;;;5.63;2.60;;;;;;;12.84;74.87;100843.56;5060479;28;20033;-86
2021/05/18 05:55:14;;;;;;;2.95;2.05;;;;;;;12.98;73.08;100840.16;5058397;28;20086;-85
2021/05/18 05:57:40;;;;;;;3.85;2.47;;;;;;;13.14;75.24;100842.94;5063429;28;20116;-85
2021/05/18 06:00:08;;;;;;;3.47;3.00;;;;;;;13.46;74.51;100846.28;5061163;28;20024;-86
2021/05/18 06:02:34;;;;;;;2.78;2.17;;;;;;;13.42;73.91;100847.91;5061915;28;20032;-86
2021/05/18 06:05:00;;;;;;;3.58;2.55;;;;;;;13.56;73.45;100840.94;5059162;28;20088;-86
2021/05/18 06:07:26;;;;;;;3.00;2.53;;;;;;;13.64;72.08;100844.19;5059180;28;20036;-85
2021/05/18 06:09:58;;;;;;;3.20;2.38;;;;;;;13.70;72.61;100843.94;5060544;28;20032;-85
2021/05/18 06:12:52;;;;;;;5.55;2.95;;;;;;;13.87;71.74;100846.41;5061374;28;22237;-85
2021/05/18 06:47:32;;;;;;;2.83;2.63;;;;;;;15.53;63.70;100875.25;5059459;28;20541;-85
2021/05/18 06:50:22;;;;;;;4.10;2.63;;;;;;;15.57;64.35;100876.31;5068770;28;20112;-86
2021/05/18 06:52:48;;;;;;;5.00;2.60;;;;;;;15.66;63.82;100880.91;5065864;28;20103;-85
2021/05/18 06:55:18;;;;;;;5.15;2.72;;;;;;;16.15;63.65;100873.81;5067525;28;20043;-84
2021/05/18 06:57:56;;;;;;;3.08;2.75;;;;;;;16.54;63.25;100871.88;5078480;28;20020;-84
2021/05/18 07:00:21;;;;;;;2.58;2.38;;;;;;;16.85;62.16;100877.81;5064440;28;20032;-84
2021/05/18 07:02:52;;;;;;;2.95;1.98;;;;;;;16.53;60.73;100880.28;5060067;28;20025;-84
2021/05/18 07:10:28;;;;;;;1.50;1.10;;;;;;;15.70;60.98;100889.25;5062936;28;20024;-85
2021/05/18 07:12:54;;;;;;;1.30;1.02;;;;;;;15.74;60.06;100889.50;5059422;28;20029;-84
2021/05/18 07:15:19;;;;;;;2.53;1.40;;;;;;;16.10;60.09;100887.38;5061822;28;20198;-84
2021/05/18 07:17:45;;;;;;;1.60;1.40;;;;;;;16.44;59.79;100887.38;5064688;28;20031;-84
2021/05/18 07:20:11;;;;;;;5.07;2.00;;;;;;;16.53;59.31;100885.69;5063548;28;20025;-84
2021/05/18 07:22:37;;;;;;;1.50;1.40;;;;;;;16.55;56.38;100905.94;5061930;28;20044;-85
2021/05/18 07:25:03;;;;;;;1.77;1.67;;;;;;;16.17;57.40;100896.00;5055343;28;20032;-84
2021/05/18 07:27:29;;;;;;;4.72;1.75;;;;;;;16.16;58.32;100900.59;5063781;28;20037;-84
2021/05/18 07:29:54;;;;;;;2.28;2.08;;;;;;;16.31;59.15;100902.34;5065549;28;20517;-85
2021/05/18 07:32:20;;;;;;;1.95;1.77;;;;;;;16.56;58.59;100904.88;5066062;28;20093;-83
2021/05/18 07:34:46;;;;;;;2.92;1.70;;;;;;;16.77;57.84;100902.00;5063391;28;20021;-84
2021/05/18 07:37:13;;;;;;;2.40;2.03;;;;;;;16.65;57.12;100915.06;5058270;28;20025;-84
2021/05/18 07:39:38;;;;;;;2.15;1.85;;;;;;;17.14;56.55;100912.16;5061582;28;20483;-85
2021/05/18 07:42:04;;;;;;;2.45;2.25;;;;;;;17.49;56.14;100897.41;5061068;28;20036;-85
2021/05/18 07:44:30;;;;;;;2.42;1.90;;;;;;;17.84;55.61;100898.06;5057395;28;20029;-84
2021/05/18 07:46:55;;;;;;;2.35;1.98;;;;;;;18.25;52.44;100912.59;5060944;28;20033;-85
2021/05/18 07:49:32;;;;;;;5.05;2.25;;;;;;;18.71;53.99;100901.84;5061791;28;20076;-84
2021/05/18 08:05:31;;;;;;;2.80;1.98;;;;;;;19.47;51.52;100896.84;5065437;28;20039;-85
2021/05/18 08:07:56;;;;;;;2.75;2.40;;;;;;;19.24;52.40;100890.53;5062116;28;20475;-85
2021/05/18 08:10:35;;;;;;;4.63;3.35;;;;;;;18.16;53.83;100911.69;5058952;28;20028;-84
2021/05/18 08:13:01;;;;;;;4.90;2.75;;;;;;;17.76;56.25;100916.56;5062221;28;20032;-84
2021/05/18 08:15:34;;;;;;;3.17;2.40;;;;;;;17.77;56.28;100909.25;5060813;28;20452;-83
2021/05/18 10:14:19;;;;;;;1.80;1.55;;;;;;;18.35;53.56;100942.31;5051716;28;20025;-86
2021/05/18 10:35:34;;;;;;;4.63;3.08;;;;;;;15.75;59.19;100982.97;5052703;28;20029;-86
2021/05/18 10:38:02;;;;;;;;;;;;;;;16.00;58.46;100977.44;5068635;28;20032;-85
2021/05/18 10:40:32;;;;;;;6.43;3.67;;;;;;;16.17;58.25;100979.78;5053669;28;19920;-86
2021/05/18 10:43:19;;;;;;;3.83;3.42;;;;;;;16.53;58.16;100978.47;5055512;28;20064;-85
2021/05/18 10:46:02;;;;;;;3.75;2.88;;;;;;;16.49;57.71;100980.09;5055123;28;20497;-87
2021/05/18 10:48:31;;;;;;;3.10;2.78;;;;;;;16.26;56.03;100987.00;5051208;28;20452;-86
2021/05/18 10:50:57;;;;;;;4.10;3.03;;;;;;;16.75;55.44;100977.25;5066168;28;20119;-85
2021/05/18 10:53:25;;;;;;;4.70;3.08;;;;;;;17.06;54.95;100975.88;5060161;28;20071;-85
2021/05/18 10:56:08;;;;;;;2.97;2.63;;;;;;;17.20;53.35;100976.78;5059212;28;20028;-84
2021/05/18 10:58:35;;;;;;;3.05;2.75;;;;;;;16.95;55.06;100979.75;5054880;28;20033;-85
2021/05/18 11:01:01;;;;;;;5.35;2.58;;;;;;;16.59;55.25;100985.44;5058099;28;20166;-84
2021/05/18 11:03:27;;;;;;;3.75;3.20;;;;;;;16.28;56.11;100990.25;5060481;28;20036;-86
2021/05/18 11:05:53;;;;;;;3.17;2.70;;;;;;;16.35;57.09;100984.53;5058131;28;20028;-83
2021/05/18 11:08:18;;;;;;;6.57;3.53;;;;;;;16.26;57.46;100983.50;5058173;28;20035;-83
2021/05/18 11:10:53;;;;;;;3.28;2.72;;;;;;;16.67;56.30;100977.81;5075566;28;20550;-83
2021/05/18 11:13:19;;;;;;;4.22;3.00;;;;;;;16.74;57.08;100984.56;5061561;28;20021;-84
2021/05/18 11:15:44;;;;;;;5.18;3.38;;;;;;;16.50;58.61;100994.41;5058172;28;20844;-83
2021/05/18 11:18:10;;;;;;;4.03;2.85;;;;;;;16.43;59.12;100989.34;5059942;28;20070;-84
2021/05/18 11:23:26;;;;;;;2.97;2.50;;;;;;;16.33;57.41;100994.81;5055054;28;20093;-83
2021/05/18 11:26:01;;;;;;;2.45;1.80;;;;;;;16.18;55.67;100992.22;5062724;28;20063;-84
2021/05/18 11:28:32;;;;;;;1.70;1.60;;;;;;;16.48;55.81;100996.59;5058293;28;20029;-83
2021/05/18 11:31:09;;;;;;;2.60;1.80;;;;;;;16.53;56.27;100993.88;5060580;28;20189;-83
2021/05/18 11:33:36;;;;;;;2.42;1.77;;;;;;;17.26;54.47;101001.13;5059440;28;20040;-84
2021/05/18 11:36:04;;;;;;;2.50;1.65;;;;;;;17.41;54.48;100987.41;5056129;28;20028;-83
2021/05/18 11:38:30;;;;;;;3.20;1.85;;;;;;;17.29;55.24;100995.94;5063102;28;20032;-85
2021/05/18 11:40:58;;;;;;;2.80;2.30;;;;;;;16.95;57.05;100993.28;5061824;28;20034;-84
2021/05/18 11:43:27;;;;;;;4.40;1.90;;;;;;;16.31;58.43;101003.19;5063314;28;20029;-84
2021/05/18 11:46:06;;;;;;;6.28;1.63;;;;;;;16.37;57.85;101001.28;5062663;28;20036;-84
2021/05/18 11:48:33;;;;;;;1.30;1.20;;;;;;;16.54;57.07;101012.53;5064446;28;21107;-84
2021/05/18 11:51:11;;;;;;;0.90;0.90;;;;;;;16.36;55.49;101010.50;5061086;28;20033;-84
2021/05/18 11:54:02;;;;;;;1.15;1.05;;;;;;;16.63;55.44;101004.63;5057769;28;20029;-83
2021/05/18 11:56:34;;;;;;;1.48;1.00;;;;;;;16.43;55.68;101015.56;5056737;28;20402;-84
2021/05/18 11:59:01;;;;;;;2.28;1.55;;;;;;;16.18;56.68;101013.84;5076272;28;20041;-84
2021/05/18 12:01:28;;;;;;;7.10;4.00;;;;;;;16.28;57.28;101014.56;5054142;28;20029;-84
2021/05/18 12:04:15;;;;;;;4.90;2.50;;;;;;;16.26;58.54;101010.53;5057262;28;20047;-84
2021/05/18 12:07:00;;;;;;;2.78;1.60;;;;;;;15.92;59.59;101013.94;5046133;28;20044;-84
2021/05/18 12:09:47;;;;;;;9.80;5.43;;;;;;;15.35;63.89;101023.28;5059558;28;20033;-84
2021/05/18 12:12:15;;;;;;;10.10;9.10;;;;;;;15.08;66.30;101037.09;5057854;28;20024;-84
2021/05/18 12:14:47;;;;;;;16.25;13.10;;;;;;;14.23;70.94;101037.75;5059146;28;20031;-84
2021/05/18 12:17:13;;;;;;;6.40;5.20;;;;;;;13.73;73.59;101033.78;5055742;28;20028;-84
2021/05/18 12:19:41;;;;;;;2.53;1.92;;;;;;;13.28;77.53;101032.44;5060776;28;20024;-84
2021/05/18 12:22:09;;;;;;;6.43;4.18;;;;;;;13.32;78.62;101030.88;5059467;28;20043;-84
2021/05/18 12:24:39;;;;;;;2.65;1.80;;;;;;;13.45;76.82;101043.84;5055817;28;20506;-84
2021/05/18 12:27:09;;;;;;;4.55;2.53;;;;;;;13.37;75.61;101038.16;5056317;28;20327;-85
2021/05/18 12:29:49;;;;;;;3.72;2.40;;;;;;;13.29;75.07;101045.66;5057535;28;20067;-85
2021/05/18 12:32:34;;;;;;;2.88;1.50;;;;;;;13.11;77.86;101053.28;5057411;28;20037;-85
2021/05/18 12:35:05;;;;;;;1.50;1.40;;;;;;;12.75;79.07;101050.28;5062537;28;20086;-86
2021/05/18 12:37:45;;;;;;;2.33;1.55;;;;;;;12.74;78.98;101054.00;5064303;28;20062;-85
2021/05/18 12:40:21;;;;;;;5.65;2.20;;;;;;;12.89;80.17;101059.53;5057415;28;20116;-84
2021/05/18 12:42:48;;;;;;;6.38;2.00;;;;;;;12.75;77.42;101079.88;5058005;28;20556;-87
2021/05/18 12:45:24;;;;;;;3.80;2.22;;;;;;;12.46;82.04;101062.34;5061098;28;20028;-85
2021/05/18 12:47:59;;;;;;;2.92;2.05;;;;;;;12.48;82.22;101070.97;5065310;28;20437;-85
2021/05/18 12:50:47;;;;;;;4.80;2.28;;;;;;;12.30;83.85;101080.19;5057866;28;20243;-86
2021/05/18 12:53:32;;;;;;;4.40;2.80;;;;;;;12.17;85.14;101070.63;5061534;28;20055;-85
2021/05/18 12:55:59;;;;;;;3.80;2.58;;;;;;;12.15;85.38;101070.06;5060158;28;20115;-86
2021/05/18 12:58:26;;;;;;;6.53;3.10;;;;;;;12.35;85.51;101072.16;5054758;28;20330;-86
2021/05/18 13:01:16;;;;;;;5.15;3.13;;;;;;;12.58;86.25;101079.16;5060986;28;20029;-86
2021/05/18 13:03:43;;;;;;;5.28;3.53;;;;;;;12.95;83.64;101071.97;5060282;28;22025;-85
2021/05/18 13:06:12;;;;;;;4.43;3.42;;;;;;;13.38;82.39;101078.25;5062194;28;20533;-86
2021/05/18 13:08:38;;;;;;;5.07;3.55;;;;;;;13.57;80.71;101075.97;5059928;28;20210;-85
2021/05/18 13:14:01;;;;;;;6.22;4.13;;;;;;;13.84;76.65;101083.94;5057980;28;20024;-86
2021/05/18 13:16:35;;;;;;;5.53;3.65;;;;;;;14.70;73.35;101095.03;5071118;28;20032;-85
2021/05/18 13:19:07;;;;;;;11.65;8.23;;;;;;;15.77;72.68;101084.25;5052579;28;20024;-85
2021/05/18 13:21:36;;;;;;;10.45;8.02;;;;;;;17.16;66.30;101085.97;5055619;28;20028;-86
2021/05/18 13:26:38;;;;;;;5.25;4.28;;;;;;;17.16;62.91;101081.34;5053805;28;20025;-86
2021/05/18 13:29:08;;;;;;;4.38;3.30;;;;;;;16.88;59.71;101079.44;5058501;28;20028;-85
2021/05/18 13:31:38;;;;;;;6.40;2.72;;;;;;;17.10;61.57;101074.38;5052973;28;20025;-86
2021/05/18 13:34:05;;;;;;;3.33;2.70;;;;;;;16.88;60.85;101082.94;5056846;28;20126;-85
2021/05/18 13:36:33;;;;;;;4.53;2.13;;;;;;;17.36;57.46;101074.94;5050901;28;20028;-86
2021/05/18 13:39:07;;;;;;;2.10;1.70;;;;;;;18.40;53.81;101075.13;5067375;28;20409;-85
2021/05/18 13:41:39;;;;;;;2.20;1.90;;;;;;;18.55;53.24;101081.47;5056516;28;20035;-85
2021/05/18 13:44:07;;;;;;;2.20;1.83;;;;;;;20.34;49.62;101072.59;5055839;28;20500;-85
2021/05/18 13:46:38;;;;;;;2.78;1.45;;;;;;;18.97;50.35;101086.00;5052434;28;20035;-85
2021/05/18 13:49:03;;;;;;;2.03;1.45;;;;;;;19.89;49.29;101093.38;5050491;28;20040;-85
2021/05/18 13:51:31;;;;;;;2.65;2.20;;;;;;;20.13;49.52;101071.41;5057445;28;20028;-85
2021/05/18 13:53:57;;;;;;;4.78;2.22;;;;;;;19.59;48.92;101081.19;5061148;28;20490;-85
2021/05/18 13:56:23;;;;;;;3.33;2.30;;;;;;;18.29;50.59;101092.63;5058763;28;20038;-85
2021/05/18 13:58:50;;;;;;;2.53;2.33;;;;;;;17.86;52.67;101089.09;5061518;28;20169;-84
2021/05/18 14:01:26;;;;;;;4.25;2.63;;;;;;;17.53;54.15;101088.88;5059992;28;20032;-84
2021/05/18 14:03:54;;;;;;;5.90;2.22;;;;;;;17.52;53.45;101092.69;5057117;28;20024;-85
2021/05/18 14:06:20;;;;;;;4.63;2.20;;;;;;;17.85;52.52;101095.63;5061136;28;20021;-85
2021/05/18 14:08:46;;;;;;;4.00;2.70;;;;;;;18.76;50.80;101090.94;5058695;28;20025;-84
2021/05/18 14:11:19;;;;;;;4.75;3.10;;;;;;;20.59;48.41;101079.41;5051991;28;20032;-84
2021/05/18 14:13:55;;;;;;;3.20;2.45;;;;;;;24.23;39.90;101080.78;5056876;28;20119;-84
2021/05/18 14:16:25;;;;;;;2.55;2.30;;;;;;;25.88;36.92;101073.44;5074388;28;20035;-85
2021/05/18 14:18:52;;;;;;;2.90;1.92;;;;;;;23.68;39.57;101074.28;5055178;28;20089;-84
2021/05/18 14:21:22;;;;;;;3.53;2.42;;;;;;;23.83;36.66;101080.34;5057158;28;20025;-84
2021/05/18 14:24:08;;;;;;;4.85;2.63;;;;;;;24.78;36.47;101075.09;5051103;28;20025;-85
2021/05/18 14:26:37;;;;;;;5.25;2.10;;;;;;;26.35;33.97;101066.66;5047207;28;20033;-84
2021/05/18 14:29:03;;;;;;;2.72;2.00;;;;;;;28.22;30.17;101075.53;5061456;28;20035;-84
2021/05/18 14:31:29;;;;;;;2.25;1.17;;;;;;;24.13;32.66;101068.28;5050542;28;20522;-85
2021/05/18 14:33:57;;;;;;;1.88;1.50;;;;;;;25.81;31.20;101070.44;5051965;28;20498;-85
2021/05/18 14:36:23;;;;;;;2.00;1.70;;;;;;;27.43;27.97;101062.97;5055205;28;20029;-85
2021/05/18 14:38:51;;;;;;;4.63;1.50;;;;;;;26.59;28.42;101061.09;5058795;28;20675;-85
2021/05/18 14:44:03;;;;;;;3.50;1.45;;;;;;;29.32;25.82;101051.38;5059618;28;20046;-84
2021/05/18 14:46:36;;;;;;;2.30;1.45;;;;;;;29.45;24.00;101052.78;5056214;28;21004;-84
2021/05/18 14:56:52;;;;;;;1.70;1.17;;;;;;;28.58;25.34;101063.34;5056349;28;20090;-85
2021/05/18 14:59:17;;;;;;;1.98;1.25;;;;;;;27.69;26.05;101063.28;5072852;28;20029;-84
2021/05/18 15:01:43;;;;;;;1.55;1.20;;;;;;;28.99;24.59;101050.00;5056222;28;20684;-84
2021/05/18 15:04:08;;;;;;;3.33;1.50;;;;;;;30.52;22.93;101052.44;5058317;28;20032;-84
2021/05/18 15:06:36;;;;;;;2.00;1.23;;;;;;;31.73;21.61;101050.13;5057077;28;20025;-84
2021/05/18 15:09:02;;;;;;;1.85;1.30;;;;;;;29.72;21.89;101061.91;5055678;28;20139;-85
2021/05/18 15:11:27;;;;;;;1.45;1.05;;;;;;;29.89;21.92;101064.16;5058806;28;20116;-84
2021/05/18 15:13:53;;;;;;;1.50;1.05;;;;;;;31.23;20.95;101055.22;5061984;28;20028;-85
2021/05/18 15:16:18;;;;;;;1.30;0.90;;;;;;;32.03;19.30;101061.81;5060440;28;20542;-84
2021/05/18 15:18:47;;;;;;;2.63;1.15;;;;;;;31.96;19.22;101061.78;5059132;28;20493;-84
2021/05/18 15:21:17;;;;;;;1.73;1.25;;;;;;;32.69;18.32;101059.78;5057139;28;20067;-85
2021/05/18 15:23:43;;;;;;;3.33;0.80;;;;;;;28.44;22.28;101071.31;5056105;28;20062;-85
2021/05/18 15:26:09;;;;;;;2.58;0.90;;;;;;;25.51;26.45;101075.34;5064703;28;20029;-85
2021/05/18 15:28:35;;;;;;;1.30;0.90;;;;;;;24.03;29.42;101088.63;5060940;28;20028;-85
2021/05/18 15:31:00;;;;;;;1.50;1.40;;;;;;;24.46;30.16;101086.78;5055693;28;20066;-85
2021/05/18 15:33:27;;;;;;;2.00;1.45;;;;;;;28.08;25.56;101086.25;5056060;28;20410;-84
2021/05/18 15:35:52;;;;;;;3.65;1.58;;;;;;;30.90;22.93;101079.00;5056825;28;20529;-84
2021/05/18 15:38:18;;;;;;;3.50;1.60;;;;;;;32.58;20.79;101080.34;5057153;28;20037;-84
2021/05/18 15:40:47;;;;;;;2.25;1.67;;;;;;;34.78;18.63;101074.75;5059268;28;20022;-85
2021/05/18 15:43:13;;;;;;;3.50;1.95;;;;;;;35.51;17.34;101082.25;5061408;28;20028;-84
2021/05/18 15:45:39;;;;;;;1.88;1.60;;;;;;;36.13;17.21;101077.72;5060846;28;20587;-84
2021/05/18 15:48:06;;;;;;;2.10;1.70;;;;;;;34.82;18.40;101081.06;5057777;28;20024;-85
2021/05/18 15:50:32;;;;;;;2.83;0.98;;;;;;;32.21;20.49;101083.28;5057975;28;20028;-85
2021/05/18 15:52:58;;;;;;;1.73;1.02;;;;;;;28.83;24.59;101091.41;5070113;28;20056;-84
2021/05/18 15:55:24;;;;;;;3.05;1.10;;;;;;;26.88;27.38;101086.63;5054883;28;20059;-84
2021/05/18 15:57:50;;;;;;;4.47;1.20;;;;;;;24.87;30.42;101086.75;5057546;28;20033;-85
2021/05/18 16:00:16;;;;;;;1.48;1.33;;;;;;;23.76;32.54;101106.31;5058130;28;20085;-84
2021/05/18 16:02:43;;;;;;;1.30;1.20;;;;;;;22.87;34.57;101098.91;5062375;28;20033;-84
2021/05/18 16:05:09;;;;;;;2.13;1.20;;;;;;;21.98;35.85;101097.44;5060209;28;20085;-85
2021/05/18 16:07:36;;;;;;;4.43;1.58;;;;;;;21.59;36.64;101103.69;5058638;28;20508;-84
2021/05/18 16:10:01;;;;;;;2.13;1.55;;;;;;;21.14;37.86;101103.69;5064237;28;20074;-84
2021/05/18 16:12:27;;;;;;;2.00;1.75;;;;;;;20.97;38.16;101104.38;5058280;28;20036;-84
2021/05/18 16:14:55;;;;;;;3.08;1.80;;;;;;;20.65;39.11;101108.16;5061276;28;20060;-83
2021/05/18 16:17:22;;;;;;;4.50;1.77;;;;;;;21.03;38.37;101105.88;5066170;28;20020;-83
2021/05/18 16:19:53;;;;;;;2.10;1.40;;;;;;;20.74;39.11;101109.00;5061674;28;20052;-83
2021/05/18 16:22:21;;;;;;;4.38;2.17;;;;;;;20.66;39.36;101111.66;5060556;28;20036;-84
2021/05/18 16:24:46;;;;;;;4.38;2.85;;;;;;;20.53;39.72;101113.31;5052946;28;20021;-83
2021/05/18 16:27:15;;;;;;;7.90;3.10;;;;;;;20.59;40.09;101112.06;5061485;28;20039;-83
2021/05/18 16:29:42;;;;;;;5.05;2.47;;;;;;;20.69;39.97;101111.06;5071616;28;20033;-83
2021/05/18 16:32:11;;;;;;;2.83;1.98;;;;;;;23.74;34.56;101115.97;5058107;28;20078;-83
2021/05/18 16:34:39;;;;;;;3.45;1.88;;;;;;;27.07;29.67;101108.81;5060991;28;20024;-83
2021/05/18 16:37:05;;;;;;;4.15;1.85;;;;;;;27.08;29.19;101113.94;5059140;28;20025;-84
2021/05/18 16:39:34;;;;;;;1.85;1.60;;;;;;;27.87;27.52;101105.03;5051160;28;20020;-83
2021/05/18 16:41:59;;;;;;;1.70;1.60;;;;;;;26.26;29.98;101105.22;5060147;28;20596;-83
2021/05/18 16:44:29;;;;;;;2.08;1.40;;;;;;;24.70;32.68;101125.28;5058198;28;20032;-84
2021/05/18 16:46:56;;;;;;;2.45;1.50;;;;;;;23.90;33.70;101124.44;5058278;28;20710;-84